Airfield :







YOU CAN JOIN US ON...

 
LOGIN :

Register | Disclaimer

   EN    FR    IT 

 









Legend :    VFR   Marginal VFR   IFR   Intensive IFR   Very Intensive IFR
Visi :
Ceiling :
>= 8 km
>= 3000ft
5 to 8 km
1000 to 3000 ft
1500m to 5 km
500 to 1000 ft
800 to 1500m
200 to 500 ft
< 800m
< 200 ft
Symbols :   Thunderstorms  Fog  Heavy snow  Heavy precipitations  Wind > 20 kt






- Airport Elevation : 1074 ft


KHIE - Mount Washington Regional

CURRENT METAR :
  • 152152Z AUTO 00000KT 10SM CLR 08/02 A3005 RMK AO2 SLP185 T00830017

EXPIRED METARs :
  • 152052Z AUTO 24003KT 10SM CLR 12/M02 A3004 RMK AO2 SLP180 T01171017 58010
  • 151952Z AUTO 29004KT 10SM CLR 12/M02 A3005 RMK AO2 SLP183 T01221017

TAF KHIE
Valid from the 15 at 18:00 until the 16 at 18:00 UTC


151720Z 1518/1618 VRB05KT P6SM BKN050
FM160800 00000KT 6SM BR FEW250
FM161200 19003KT P6SM FEW250
FM161700 17012G19KT P6SM SCT250



MET'MAP, your aeronautical weather chart ! - Copyright ORBIFLY December 2007 - Disclaimer

ORBIFLY MET'MAP TEAM :

Programming & Development : Alexandra Zaïnal
Concept & Development : Baudouin d'Aumeries
Co-Development & Prog : Marc-Olivier Méhu
Technical & hardware support : Manuel Goepfert

Contact : metmap@orbifly.com




SOURCES & CREDITS :

   NOAA